Aérodrome :
LOGIN :

S'inscrire | Disclaimer

   EN    FR    IT 

 










Légende :    VFR   VFR Marginal   IFR   IFR Intensif   IFR Très Intensif
Visi : 
Plafond : 
>= 8 km
>= 3000ft
5 à 8 km
1000 à 3000 ft
1500m à 5 km
500 à 1000 ft
800 à 1500m
200 à 500 ft
< 800m
< 200 ft
Symboles :   Orages  Brouillard  Fortes neiges  Fortes précipitations  Vent > 20 kt
SIGMETs :   Divers  Orages  Givrage  Turbulence  Onde Orograph.  Cendres Volcan.






- Altitude de l'aérodrome : 162 ft
- Code IATA : BOD


LFBD - Bordeaux / Merignac

DERNIER METAR :
  • 182300Z AUTO 34005KT CAVOK 24/15 Q1018 NOSIG

METARs EXPIRÉS :
  • 182230Z AUTO 35005KT CAVOK 24/15 Q1018 NOSIG
  • 182200Z AUTO 35005KT CAVOK 25/16 Q1018 NOSIG
  • 182130Z AUTO 36005KT 330V040 CAVOK 26/16 Q1018 NOSIG
  • 182100Z AUTO 35004KT 330V070 CAVOK 26/17 Q1018 NOSIG
  • 182030Z AUTO 34004KT 310V050 CAVOK 27/18 Q1018 NOSIG
  • 182000Z AUTO 36007KT CAVOK 27/17 Q1017 NOSIG
  • 181930Z AUTO 01009KT 330V030 CAVOK 29/16 Q1017 NOSIG
  • 181900Z AUTO 02009KT CAVOK 31/17 Q1017 NOSIG
  • 181830Z AUTO 04009KT CAVOK 32/17 Q1016 NOSIG

TAF TAF LFBD
Valide du 18 à 18h jusqu'au 20 à 00h UTC


181700Z 1818/1924 33005KT CAVOK TX33/1914Z TN20/1924Z
BECMG 1900/1902 23005KT
BECMG 1906/1908 32005KT
ATIS : +33 5 57 92 81 04



MET'MAP, la Météo Aéronautique d'un coup d'oeil ! - Copyright ORBIFLY Décembre 2007 - Disclaimer

ORBIFLY MET'MAP TEAM :

Programmation & Développement : Alexandra Zaïnal
Sur une idée originale de : Baudouin d'Aumeries
Soutien technique & logistique : Manuel Goepfert
Assistance : Marc-Olivier Méhu




SOURCES & CREDITS :

   NOAA